sensor_id;sensor_type;location;lat;lon;timestamp;pressure;altitude;pressure_sealevel;temperature;humidity
38054;BME280;23859;50.672;7.164;2023-03-11T00:00:48;94828.44;;;3.85;89.33
38054;BME280;23859;50.672;7.164;2023-03-11T00:03:19;94732.38;;;3.19;90.40
38054;BME280;23859;50.672;7.164;2023-03-11T00:05:48;94828.75;;;3.89;90.01
38054;BME280;23859;50.672;7.164;2023-03-11T00:08:16;94840.38;;;3.93;90.70
38054;BME280;23859;50.672;7.164;2023-03-11T00:10:45;94843.75;;;4.09;88.39
38054;BME280;23859;50.672;7.164;2023-03-11T00:13:14;94842.97;;;4.09;88.42
38054;BME280;23859;50.672;7.164;2023-03-11T00:15:41;94845.84;;;4.07;88.96
38054;BME280;23859;50.672;7.164;2023-03-11T00:18:07;94849.97;;;4.20;87.81
38054;BME280;23859;50.672;7.164;2023-03-11T00:20:36;94846.81;;;4.01;88.41
38054;BME280;23859;50.672;7.164;2023-03-11T00:23:04;94849.41;;;4.18;86.89
38054;BME280;23859;50.672;7.164;2023-03-11T00:25:33;94852.38;;;4.05;88.33
38054;BME280;23859;50.672;7.164;2023-03-11T00:28:00;94861.50;;;4.19;86.47
38054;BME280;23859;50.672;7.164;2023-03-11T00:30:26;94862.94;;;4.10;87.66
38054;BME280;23859;50.672;7.164;2023-03-11T00:32:54;94863.97;;;4.09;86.58
38054;BME280;23859;50.672;7.164;2023-03-11T00:35:25;94879.56;;;4.15;85.31
38054;BME280;23859;50.672;7.164;2023-03-11T00:37:57;94888.16;;;4.27;85.88
38054;BME280;23859;50.672;7.164;2023-03-11T00:40:25;94858.81;;;3.97;83.51
38054;BME280;23859;50.672;7.164;2023-03-11T00:42:51;94901.03;;;4.29;85.16
38054;BME280;23859;50.672;7.164;2023-03-11T00:45:18;94902.81;;;4.23;87.10
38054;BME280;23859;50.672;7.164;2023-03-11T00:47:44;94906.75;;;4.09;87.71
38054;BME280;23859;50.672;7.164;2023-03-11T00:50:15;94902.59;;;3.81;90.48
38054;BME280;23859;50.672;7.164;2023-03-11T00:52:43;94899.66;;;3.77;90.52
38054;BME280;23859;50.672;7.164;2023-03-11T00:55:11;94902.78;;;3.91;89.13
38054;BME280;23859;50.672;7.164;2023-03-11T00:57:38;94902.59;;;3.81;89.91
38054;BME280;23859;50.672;7.164;2023-03-11T01:00:05;94807.69;;;3.23;87.36
38054;BME280;23859;50.672;7.164;2023-03-11T01:02:36;94901.34;;;3.99;87.87
38054;BME280;23859;50.672;7.164;2023-03-11T01:05:03;94908.03;;;4.07;86.59
38054;BME280;23859;50.672;7.164;2023-03-11T01:07:30;94915.59;;;4.20;84.47
38054;BME280;23859;50.672;7.164;2023-03-11T01:09:56;94922.50;;;4.09;86.32
38054;BME280;23859;50.672;7.164;2023-03-11T01:12:22;94922.06;;;4.12;87.50
38054;BME280;23859;50.672;7.164;2023-03-11T01:14:49;94939.94;;;4.15;89.04
38054;BME280;23859;50.672;7.164;2023-03-11T01:17:15;94931.28;;;3.98;91.11
38054;BME280;23859;50.672;7.164;2023-03-11T01:19:41;94927.41;;;3.90;92.72
38054;BME280;23859;50.672;7.164;2023-03-11T01:22:07;94926.69;;;3.78;93.53
38054;BME280;23859;50.672;7.164;2023-03-11T01:24:34;94939.44;;;3.86;93.18
38054;BME280;23859;50.672;7.164;2023-03-11T01:27:01;94943.47;;;3.77;94.21
38054;BME280;23859;50.672;7.164;2023-03-11T01:29:27;94939.75;;;3.61;96.04
38054;BME280;23859;50.672;7.164;2023-03-11T01:31:53;94943.00;;;3.80;93.30
38054;BME280;23859;50.672;7.164;2023-03-11T01:34:19;94948.50;;;3.67;93.92
38054;BME280;23859;50.672;7.164;2023-03-11T01:36:45;94950.53;;;3.76;90.31
38054;BME280;23859;50.672;7.164;2023-03-11T01:39:11;94951.69;;;3.69;92.60
38054;BME280;23859;50.672;7.164;2023-03-11T01:41:37;94949.00;;;3.64;92.57
38054;BME280;23859;50.672;7.164;2023-03-11T01:44:03;94947.09;;;3.48;93.54
38054;BME280;23859;50.672;7.164;2023-03-11T01:49:20;94954.72;;;3.61;91.78
38054;BME280;23859;50.672;7.164;2023-03-11T01:51:52;94956.44;;;3.55;93.41
38054;BME280;23859;50.672;7.164;2023-03-11T01:54:27;94947.16;;;3.64;91.92
38054;BME280;23859;50.672;7.164;2023-03-11T01:56:55;94959.91;;;4.00;87.71
38054;BME280;23859;50.672;7.164;2023-03-11T01:59:26;94957.03;;;4.01;87.02
38054;BME280;23859;50.672;7.164;2023-03-11T02:02:17;94789.38;;;2.84;87.58
38054;BME280;23859;50.672;7.164;2023-03-11T02:04:45;94964.88;;;3.85;87.77
38054;BME280;23859;50.672;7.164;2023-03-11T02:07:13;94965.56;;;3.81;88.86
38054;BME280;23859;50.672;7.164;2023-03-11T02:09:39;94973.34;;;4.03;86.04
38054;BME280;23859;50.672;7.164;2023-03-11T02:12:06;94974.19;;;3.93;86.25
38054;BME280;23859;50.672;7.164;2023-03-11T02:14:35;94978.78;;;3.86;85.48
38054;BME280;23859;50.672;7.164;2023-03-11T02:17:04;94982.94;;;3.98;85.34
38054;BME280;23859;50.672;7.164;2023-03-11T02:21:59;94885.41;;;3.18;84.57
38054;BME280;23859;50.672;7.164;2023-03-11T02:24:45;94985.44;;;3.77;86.66
38054;BME280;23859;50.672;7.164;2023-03-11T02:27:16;94990.56;;;3.99;83.57
38054;BME280;23859;50.672;7.164;2023-03-11T02:29:45;94983.19;;;3.96;84.22
38054;BME280;23859;50.672;7.164;2023-03-11T02:32:14;94992.34;;;4.10;82.22
38054;BME280;23859;50.672;7.164;2023-03-11T02:34:41;94988.00;;;4.16;82.66
38054;BME280;23859;50.672;7.164;2023-03-11T02:37:09;94988.69;;;3.95;84.01
38054;BME280;23859;50.672;7.164;2023-03-11T02:39:48;94984.34;;;3.61;84.80
38054;BME280;23859;50.672;7.164;2023-03-11T02:42:25;94986.88;;;3.56;85.76
38054;BME280;23859;50.672;7.164;2023-03-11T02:45:11;95012.47;;;3.77;85.14
38054;BME280;23859;50.672;7.164;2023-03-11T02:47:39;94998.66;;;3.82;84.71
38054;BME280;23859;50.672;7.164;2023-03-11T02:50:08;94994.16;;;3.66;83.10
38054;BME280;23859;50.672;7.164;2023-03-11T02:52:36;94994.88;;;3.78;84.72
38054;BME280;23859;50.672;7.164;2023-03-11T02:55:03;95001.91;;;3.89;82.27
38054;BME280;23859;50.672;7.164;2023-03-11T02:57:29;94898.84;;;3.21;83.07
38054;BME280;23859;50.672;7.164;2023-03-11T02:59:55;95003.91;;;3.82;82.30
38054;BME280;23859;50.672;7.164;2023-03-11T03:02:21;94918.72;;;3.17;80.45
38054;BME280;23859;50.672;7.164;2023-03-11T03:04:47;95013.06;;;3.68;81.29
38054;BME280;23859;50.672;7.164;2023-03-11T03:07:16;95023.97;;;3.88;80.05
38054;BME280;23859;50.672;7.164;2023-03-11T03:09:42;95008.47;;;3.75;79.49
38054;BME280;23859;50.672;7.164;2023-03-11T03:12:08;95005.44;;;3.66;81.10
38054;BME280;23859;50.672;7.164;2023-03-11T03:14:34;95009.78;;;3.61;79.56
38054;BME280;23859;50.672;7.164;2023-03-11T03:17:00;94912.28;;;2.85;81.34
38054;BME280;23859;50.672;7.164;2023-03-11T03:19:26;95009.34;;;3.41;82.35
38054;BME280;23859;50.672;7.164;2023-03-11T03:21:52;95005.91;;;3.52;80.69
38054;BME280;23859;50.672;7.164;2023-03-11T03:24:18;95000.84;;;3.34;81.55
38054;BME280;23859;50.672;7.164;2023-03-11T03:26:44;95015.44;;;3.69;79.39
38054;BME280;23859;50.672;7.164;2023-03-11T03:29:10;94906.69;;;2.82;82.06
38054;BME280;23859;50.672;7.164;2023-03-11T03:31:37;95000.59;;;3.35;80.94
38054;BME280;23859;50.672;7.164;2023-03-11T03:34:03;95014.97;;;3.33;81.90
38054;BME280;23859;50.672;7.164;2023-03-11T03:36:29;95012.91;;;3.35;82.49
38054;BME280;23859;50.672;7.164;2023-03-11T03:38:56;95013.38;;;3.32;83.20
38054;BME280;23859;50.672;7.164;2023-03-11T03:41:22;95018.38;;;3.33;81.66
38054;BME280;23859;50.672;7.164;2023-03-11T03:43:49;95016.59;;;3.11;83.40
38054;BME280;23859;50.672;7.164;2023-03-11T03:46:15;95028.06;;;3.22;82.38
38054;BME280;23859;50.672;7.164;2023-03-11T03:48:42;95028.88;;;3.11;82.26
38054;BME280;23859;50.672;7.164;2023-03-11T03:51:10;95027.97;;;3.05;83.92
38054;BME280;23859;50.672;7.164;2023-03-11T03:53:36;95022.66;;;2.89;84.45
38054;BME280;23859;50.672;7.164;2023-03-11T03:56:10;95022.06;;;2.98;82.84
38054;BME280;23859;50.672;7.164;2023-03-11T03:58:37;95044.84;;;3.32;78.62
38054;BME280;23859;50.672;7.164;2023-03-11T04:01:04;95033.56;;;2.97;81.11
38054;BME280;23859;50.672;7.164;2023-03-11T04:03:31;95044.84;;;2.98;81.35
38054;BME280;23859;50.672;7.164;2023-03-11T04:06:14;95031.06;;;2.91;83.61
38054;BME280;23859;50.672;7.164;2023-03-11T04:08:41;95030.25;;;3.02;80.86
38054;BME280;23859;50.672;7.164;2023-03-11T04:11:07;95048.69;;;2.84;80.72
38054;BME280;23859;50.672;7.164;2023-03-11T04:13:34;95041.63;;;2.73;82.66
38054;BME280;23859;50.672;7.164;2023-03-11T04:16:03;95043.69;;;2.82;81.47
38054;BME280;23859;50.672;7.164;2023-03-11T04:18:29;95054.28;;;2.64;82.68
38054;BME280;23859;50.672;7.164;2023-03-11T04:20:55;95052.09;;;2.50;82.93
38054;BME280;23859;50.672;7.164;2023-03-11T04:23:22;95047.75;;;2.56;81.99
38054;BME280;23859;50.672;7.164;2023-03-11T04:25:48;95046.78;;;2.39;84.86
38054;BME280;23859;50.672;7.164;2023-03-11T04:28:14;95054.00;;;2.43;84.69
38054;BME280;23859;50.672;7.164;2023-03-11T04:30:40;95055.22;;;2.29;85.15
38054;BME280;23859;50.672;7.164;2023-03-11T04:33:06;95060.78;;;2.33;83.71
38054;BME280;23859;50.672;7.164;2023-03-11T04:35:32;95070.19;;;2.63;82.38
38054;BME280;23859;50.672;7.164;2023-03-11T04:37:59;95066.41;;;2.48;83.78
38054;BME280;23859;50.672;7.164;2023-03-11T04:40:26;95063.13;;;2.23;85.07
38054;BME280;23859;50.672;7.164;2023-03-11T04:42:52;95066.31;;;2.13;86.64
38054;BME280;23859;50.672;7.164;2023-03-11T04:45:19;95069.69;;;2.02;86.53
38054;BME280;23859;50.672;7.164;2023-03-11T04:47:48;95069.69;;;1.85;87.77
38054;BME280;23859;50.672;7.164;2023-03-11T04:50:15;95078.97;;;2.28;85.26
38054;BME280;23859;50.672;7.164;2023-03-11T04:52:41;95066.97;;;2.09;88.65
38054;BME280;23859;50.672;7.164;2023-03-11T04:55:08;95067.38;;;2.06;87.35
38054;BME280;23859;50.672;7.164;2023-03-11T04:57:35;95075.34;;;2.29;86.24
38054;BME280;23859;50.672;7.164;2023-03-11T05:00:02;95077.28;;;2.22;86.10
38054;BME280;23859;50.672;7.164;2023-03-11T05:02:30;95084.91;;;2.05;87.36
38054;BME280;23859;50.672;7.164;2023-03-11T05:04:57;95076.44;;;1.92;89.05
38054;BME280;23859;50.672;7.164;2023-03-11T05:07:23;95071.47;;;2.02;89.31
38054;BME280;23859;50.672;7.164;2023-03-11T05:09:49;95075.06;;;1.90;86.35
38054;BME280;23859;50.672;7.164;2023-03-11T05:12:15;95075.06;;;1.90;87.80
38054;BME280;23859;50.672;7.164;2023-03-11T05:14:41;95072.41;;;1.78;88.81
38054;BME280;23859;50.672;7.164;2023-03-11T05:17:07;95079.06;;;1.74;88.69
38054;BME280;23859;50.672;7.164;2023-03-11T05:19:34;95072.47;;;1.72;90.35
38054;BME280;23859;50.672;7.164;2023-03-11T05:22:01;95076.75;;;1.66;89.58
38054;BME280;23859;50.672;7.164;2023-03-11T05:24:28;95076.31;;;1.69;91.08
38054;BME280;23859;50.672;7.164;2023-03-11T05:26:54;95093.91;;;1.62;89.26
38054;BME280;23859;50.672;7.164;2023-03-11T05:29:21;95090.13;;;1.58;91.96
38054;BME280;23859;50.672;7.164;2023-03-11T05:31:47;95094.56;;;1.58;92.90
38054;BME280;23859;50.672;7.164;2023-03-11T05:34:14;95097.44;;;1.50;93.17
38054;BME280;23859;50.672;7.164;2023-03-11T05:36:41;95099.03;;;1.51;93.05
38054;BME280;23859;50.672;7.164;2023-03-11T05:39:07;95096.66;;;1.49;92.65
38054;BME280;23859;50.672;7.164;2023-03-11T05:41:33;95111.19;;;1.45;93.26
38054;BME280;23859;50.672;7.164;2023-03-11T05:43:59;95097.53;;;1.43;92.37
38054;BME280;23859;50.672;7.164;2023-03-11T05:46:25;95110.03;;;1.41;92.36
38054;BME280;23859;50.672;7.164;2023-03-11T05:48:52;95117.19;;;1.46;93.12
38054;BME280;23859;50.672;7.164;2023-03-11T05:51:18;95116.56;;;1.50;93.46
38054;BME280;23859;50.672;7.164;2023-03-11T05:53:45;95125.25;;;1.44;93.86
38054;BME280;23859;50.672;7.164;2023-03-11T05:56:14;95123.50;;;1.38;94.36
38054;BME280;23859;50.672;7.164;2023-03-11T05:58:40;95117.69;;;1.36;93.00
38054;BME280;23859;50.672;7.164;2023-03-11T06:01:10;95122.06;;;1.42;92.73
38054;BME280;23859;50.672;7.164;2023-03-11T06:03:38;95132.50;;;1.42;92.69
38054;BME280;23859;50.672;7.164;2023-03-11T06:06:05;95136.72;;;1.43;94.07
38054;BME280;23859;50.672;7.164;2023-03-11T06:08:32;95134.25;;;1.48;94.86
38054;BME280;23859;50.672;7.164;2023-03-11T06:11:06;95129.19;;;1.53;94.48
38054;BME280;23859;50.672;7.164;2023-03-11T06:13:32;95139.22;;;1.56;94.19
38054;BME280;23859;50.672;7.164;2023-03-11T06:15:59;95142.13;;;1.66;94.52
38054;BME280;23859;50.672;7.164;2023-03-11T06:18:25;95144.88;;;1.71;92.26
38054;BME280;23859;50.672;7.164;2023-03-11T06:20:52;95144.38;;;1.81;92.99
38054;BME280;23859;50.672;7.164;2023-03-11T06:23:19;95143.16;;;1.83;91.50
38054;BME280;23859;50.672;7.164;2023-03-11T06:28:23;95158.41;;;2.04;90.45
38054;BME280;23859;50.672;7.164;2023-03-11T06:30:49;95163.44;;;2.17;91.11
38054;BME280;23859;50.672;7.164;2023-03-11T06:33:15;95067.69;;;1.69;89.15
38054;BME280;23859;50.672;7.164;2023-03-11T06:35:41;95180.00;;;2.47;88.82
38054;BME280;23859;50.672;7.164;2023-03-11T06:38:07;95193.94;;;2.88;87.52
38054;BME280;23859;50.672;7.164;2023-03-11T06:40:35;95201.75;;;3.17;85.26
38054;BME280;23859;50.672;7.164;2023-03-11T06:43:01;95216.16;;;3.37;81.13
38054;BME280;23859;50.672;7.164;2023-03-11T06:45:27;95224.50;;;3.69;78.77
38054;BME280;23859;50.672;7.164;2023-03-11T06:47:53;95232.19;;;3.82;79.41
38054;BME280;23859;50.672;7.164;2023-03-11T06:50:19;95234.00;;;3.70;77.99
38054;BME280;23859;50.672;7.164;2023-03-11T06:52:48;95244.03;;;4.18;76.51
38054;BME280;23859;50.672;7.164;2023-03-11T06:55:14;95242.41;;;4.40;75.82
38054;BME280;23859;50.672;7.164;2023-03-11T06:57:40;95251.25;;;4.62;73.81
38054;BME280;23859;50.672;7.164;2023-03-11T07:00:08;95250.50;;;4.50;73.88
38054;BME280;23859;50.672;7.164;2023-03-11T07:02:37;95248.47;;;4.29;72.58
38054;BME280;23859;50.672;7.164;2023-03-11T07:05:03;95253.34;;;4.37;74.86
38054;BME280;23859;50.672;7.164;2023-03-11T07:07:29;95271.22;;;4.63;73.31
38054;BME280;23859;50.672;7.164;2023-03-11T07:09:55;95280.94;;;4.62;72.51
38054;BME280;23859;50.672;7.164;2023-03-11T07:12:24;95281.28;;;4.66;73.93
38054;BME280;23859;50.672;7.164;2023-03-11T07:14:57;95285.38;;;4.73;74.28
38054;BME280;23859;50.672;7.164;2023-03-11T07:17:24;95299.75;;;4.94;73.43
38054;BME280;23859;50.672;7.164;2023-03-11T07:19:51;95295.94;;;4.62;73.75
38054;BME280;23859;50.672;7.164;2023-03-11T07:22:18;95296.59;;;4.69;72.20
38054;BME280;23859;50.672;7.164;2023-03-11T07:24:45;95300.00;;;4.81;72.62
38054;BME280;23859;50.672;7.164;2023-03-11T07:27:12;95309.63;;;5.15;70.85
38054;BME280;23859;50.672;7.164;2023-03-11T07:29:38;95304.63;;;4.51;74.95
38054;BME280;23859;50.672;7.164;2023-03-11T07:32:06;95318.53;;;4.63;75.05
38054;BME280;23859;50.672;7.164;2023-03-11T07:34:32;95314.97;;;4.80;71.79
38054;BME280;23859;50.672;7.164;2023-03-11T07:36:58;95329.94;;;4.80;74.63
38054;BME280;23859;50.672;7.164;2023-03-11T07:39:25;95342.53;;;4.78;74.03
38054;BME280;23859;50.672;7.164;2023-03-11T07:41:51;95343.13;;;5.08;72.73
38054;BME280;23859;50.672;7.164;2023-03-11T07:44:18;95335.06;;;4.75;72.70
38054;BME280;23859;50.672;7.164;2023-03-11T07:46:44;95337.13;;;4.84;74.25
38054;BME280;23859;50.672;7.164;2023-03-11T07:49:10;95338.00;;;5.01;72.89
38054;BME280;23859;50.672;7.164;2023-03-11T07:51:38;95344.25;;;5.12;72.34
38054;BME280;23859;50.672;7.164;2023-03-11T07:54:06;95351.56;;;5.21;72.77
38054;BME280;23859;50.672;7.164;2023-03-11T07:56:33;95365.00;;;5.36;70.69
38054;BME280;23859;50.672;7.164;2023-03-11T07:59:01;95367.81;;;5.46;70.35
38054;BME280;23859;50.672;7.164;2023-03-11T08:01:30;95376.88;;;5.78;69.52
38054;BME280;23859;50.672;7.164;2023-03-11T08:04:02;95386.00;;;5.87;68.11
38054;BME280;23859;50.672;7.164;2023-03-11T08:06:31;95389.88;;;6.12;68.75
38054;BME280;23859;50.672;7.164;2023-03-11T08:08:59;95397.41;;;5.92;68.28
38054;BME280;23859;50.672;7.164;2023-03-11T08:11:26;95402.81;;;6.30;67.63
38054;BME280;23859;50.672;7.164;2023-03-11T08:13:52;95405.94;;;6.60;67.60
38054;BME280;23859;50.672;7.164;2023-03-11T08:16:20;95416.47;;;7.14;66.32
38054;BME280;23859;50.672;7.164;2023-03-11T08:18:47;95423.94;;;7.00;64.15
38054;BME280;23859;50.672;7.164;2023-03-11T08:21:19;95421.94;;;7.07;62.71
38054;BME280;23859;50.672;7.164;2023-03-11T08:23:47;95412.22;;;6.91;65.13
38054;BME280;23859;50.672;7.164;2023-03-11T08:26:15;95427.59;;;7.37;63.08
38054;BME280;23859;50.672;7.164;2023-03-11T08:28:42;95434.78;;;7.84;63.79
38054;BME280;23859;50.672;7.164;2023-03-11T08:31:13;95464.16;;;7.66;62.62
38054;BME280;23859;50.672;7.164;2023-03-11T08:33:41;95451.22;;;7.86;59.48
38054;BME280;23859;50.672;7.164;2023-03-11T08:36:07;95448.19;;;8.20;59.88
38054;BME280;23859;50.672;7.164;2023-03-11T08:38:33;95485.00;;;9.21;56.80
38054;BME280;23859;50.672;7.164;2023-03-11T08:40:59;95498.84;;;10.30;53.54
38054;BME280;23859;50.672;7.164;2023-03-11T08:43:26;95500.69;;;10.29;54.48
38054;BME280;23859;50.672;7.164;2023-03-11T08:45:52;95525.50;;;11.84;49.52
38054;BME280;23859;50.672;7.164;2023-03-11T08:48:18;95555.22;;;13.22;43.86
38054;BME280;23859;50.672;7.164;2023-03-11T08:50:44;95559.91;;;13.68;44.76
38054;BME280;23859;50.672;7.164;2023-03-11T08:53:10;95570.00;;;13.99;43.70
38054;BME280;23859;50.672;7.164;2023-03-11T08:55:36;95550.13;;;12.77;45.28
38054;BME280;23859;50.672;7.164;2023-03-11T08:58:03;95524.47;;;11.50;46.07
38054;BME280;23859;50.672;7.164;2023-03-11T09:00:29;95532.59;;;12.13;47.01
38054;BME280;23859;50.672;7.164;2023-03-11T09:02:55;95512.50;;;10.93;47.14
38054;BME280;23859;50.672;7.164;2023-03-11T09:05:21;95517.31;;;11.50;46.40
38054;BME280;23859;50.672;7.164;2023-03-11T09:07:47;95532.03;;;12.21;43.06
38054;BME280;23859;50.672;7.164;2023-03-11T09:10:15;95541.63;;;12.80;44.12
38054;BME280;23859;50.672;7.164;2023-03-11T09:12:41;95565.53;;;13.95;40.73
38054;BME280;23859;50.672;7.164;2023-03-11T09:15:08;95566.00;;;13.73;40.78
38054;BME280;23859;50.672;7.164;2023-03-11T09:17:35;95571.44;;;14.43;40.20
38054;BME280;23859;50.672;7.164;2023-03-11T09:20:01;95577.78;;;14.70;38.94
38054;BME280;23859;50.672;7.164;2023-03-11T09:22:28;95556.28;;;13.87;41.13
38054;BME280;23859;50.672;7.164;2023-03-11T09:24:55;95530.47;;;12.73;43.84
38054;BME280;23859;50.672;7.164;2023-03-11T09:27:21;95522.97;;;12.80;42.24
38054;BME280;23859;50.672;7.164;2023-03-11T09:29:47;95550.22;;;13.48;42.10
38054;BME280;23859;50.672;7.164;2023-03-11T09:32:14;95539.38;;;13.35;40.40
38054;BME280;23859;50.672;7.164;2023-03-11T09:34:40;95524.19;;;12.44;40.41
38054;BME280;23859;50.672;7.164;2023-03-11T09:37:07;95470.66;;;10.09;42.83
38054;BME280;23859;50.672;7.164;2023-03-11T09:39:33;95458.78;;;9.14;46.21
38054;BME280;23859;50.672;7.164;2023-03-11T09:42:16;95452.56;;;8.67;45.64
38054;BME280;23859;50.672;7.164;2023-03-11T09:44:50;95475.25;;;10.43;44.33
38054;BME280;23859;50.672;7.164;2023-03-11T09:47:29;95486.22;;;11.01;40.36
38054;BME280;23859;50.672;7.164;2023-03-11T09:50:24;95475.06;;;10.89;41.63
38054;BME280;23859;50.672;7.164;2023-03-11T09:53:16;95471.31;;;10.51;42.26
38054;BME280;23859;50.672;7.164;2023-03-11T09:55:52;95453.06;;;8.96;44.29
38054;BME280;23859;50.672;7.164;2023-03-11T09:58:40;95437.22;;;8.38;47.51
38054;BME280;23859;50.672;7.164;2023-03-11T10:04:04;95455.13;;;8.89;46.07
38054;BME280;23859;50.672;7.164;2023-03-11T10:06:33;95438.22;;;8.06;47.00
38054;BME280;23859;50.672;7.164;2023-03-11T10:12:15;95457.25;;;8.92;50.17
38054;BME280;23859;50.672;7.164;2023-03-11T10:23:26;95509.06;;;11.02;44.23
38054;BME280;23859;50.672;7.164;2023-03-11T10:28:32;95363.13;;;8.60;45.33
38054;BME280;23859;50.672;7.164;2023-03-11T10:31:18;95471.13;;;9.45;46.57
38054;BME280;23859;50.672;7.164;2023-03-11T10:33:55;95474.19;;;9.27;45.77
38054;BME280;23859;50.672;7.164;2023-03-11T10:36:27;95466.34;;;8.69;45.36
38054;BME280;23859;50.672;7.164;2023-03-11T10:38:55;95459.50;;;8.42;47.33
38054;BME280;23859;50.672;7.164;2023-03-11T10:41:35;95457.09;;;8.41;49.29
38054;BME280;23859;50.672;7.164;2023-03-11T10:44:14;95449.81;;;8.26;50.29
38054;BME280;23859;50.672;7.164;2023-03-11T10:46:42;95461.41;;;8.52;49.89
38054;BME280;23859;50.672;7.164;2023-03-11T10:49:15;95462.75;;;8.54;47.23
38054;BME280;23859;50.672;7.164;2023-03-11T10:51:46;95476.34;;;8.94;45.64
38054;BME280;23859;50.672;7.164;2023-03-11T10:54:29;95467.19;;;8.75;46.48
38054;BME280;23859;50.672;7.164;2023-03-11T10:57:01;95441.94;;;7.62;48.44
38054;BME280;23859;50.672;7.164;2023-03-11T10:59:33;95443.91;;;7.72;49.61
38054;BME280;23859;50.672;7.164;2023-03-11T11:07:47;95517.59;;;12.32;40.83
38054;BME280;23859;50.672;7.164;2023-03-11T11:12:56;95541.88;;;13.83;37.13
38054;BME280;23859;50.672;7.164;2023-03-11T11:15:39;95504.72;;;12.00;37.57
38054;BME280;23859;50.672;7.164;2023-03-11T11:18:17;95489.69;;;11.22;38.59
38054;BME280;23859;50.672;7.164;2023-03-11T11:21:12;95492.31;;;10.97;38.85
38054;BME280;23859;50.672;7.164;2023-03-11T11:24:07;95464.50;;;9.93;41.42
38054;BME280;23859;50.672;7.164;2023-03-11T11:26:34;95454.66;;;9.94;39.85
38054;BME280;23859;50.672;7.164;2023-03-11T11:29:13;95439.97;;;9.16;41.07
38054;BME280;23859;50.672;7.164;2023-03-11T11:31:44;95427.44;;;9.01;41.48
38054;BME280;23859;50.672;7.164;2023-03-11T11:34:26;95425.13;;;9.15;40.91
38054;BME280;23859;50.672;7.164;2023-03-11T11:36:54;95434.34;;;9.48;43.37
38054;BME280;23859;50.672;7.164;2023-03-11T11:39:23;95433.13;;;9.25;41.72
38054;BME280;23859;50.672;7.164;2023-03-11T11:41:51;95445.09;;;9.83;42.07
38054;BME280;23859;50.672;7.164;2023-03-11T11:44:20;95432.22;;;9.50;39.73
38054;BME280;23859;50.672;7.164;2023-03-11T11:46:53;95442.41;;;10.59;42.21
38054;BME280;23859;50.672;7.164;2023-03-11T11:49:24;95474.75;;;11.40;40.25
38054;BME280;23859;50.672;7.164;2023-03-11T11:52:10;95487.28;;;11.40;39.87
38054;BME280;23859;50.672;7.164;2023-03-11T11:54:44;95450.94;;;9.90;39.12
38054;BME280;23859;50.672;7.164;2023-03-11T11:57:16;95463.25;;;10.16;41.35
38054;BME280;23859;50.672;7.164;2023-03-11T11:59:43;95439.78;;;8.91;41.63
38054;BME280;23859;50.672;7.164;2023-03-11T12:04:47;95441.25;;;9.49;44.83
38054;BME280;23859;50.672;7.164;2023-03-11T12:07:32;95237.06;;;8.02;46.81
38054;BME280;23859;50.672;7.164;2023-03-11T12:10:22;95442.53;;;9.47;46.80
38054;BME280;23859;50.672;7.164;2023-03-11T12:15:38;95444.81;;;9.28;46.43
38054;BME280;23859;50.672;7.164;2023-03-11T12:18:15;95420.03;;;8.67;43.83
38054;BME280;23859;50.672;7.164;2023-03-11T12:20:50;95424.56;;;8.71;45.32
38054;BME280;23859;50.672;7.164;2023-03-11T12:23:47;95429.47;;;9.30;46.08
38054;BME280;23859;50.672;7.164;2023-03-11T12:26:22;95430.84;;;9.43;47.26
38054;BME280;23859;50.672;7.164;2023-03-11T12:28:57;95442.31;;;9.53;47.03
38054;BME280;23859;50.672;7.164;2023-03-11T12:31:27;95449.63;;;9.93;44.45
38054;BME280;23859;50.672;7.164;2023-03-11T12:33:58;95447.78;;;9.93;44.23
38054;BME280;23859;50.672;7.164;2023-03-11T12:36:38;95438.09;;;9.62;43.43
38054;BME280;23859;50.672;7.164;2023-03-11T12:39:07;95440.97;;;10.02;45.27
38054;BME280;23859;50.672;7.164;2023-03-11T12:41:45;95450.09;;;10.61;42.65
38054;BME280;23859;50.672;7.164;2023-03-11T12:44:21;95463.31;;;10.41;42.86
38054;BME280;23859;50.672;7.164;2023-03-11T12:49:24;95452.94;;;10.29;43.46
38054;BME280;23859;50.672;7.164;2023-03-11T12:52:18;95440.97;;;10.07;43.38
38054;BME280;23859;50.672;7.164;2023-03-11T12:55:33;95452.69;;;10.26;44.08
38054;BME280;23859;50.672;7.164;2023-03-11T12:57:47;95430.75;;;9.74;42.39
38054;BME280;23859;50.672;7.164;2023-03-11T13:08:53;95439.75;;;10.94;42.15
38054;BME280;23859;50.672;7.164;2023-03-11T13:14:20;95427.50;;;10.43;41.52
38054;BME280;23859;50.672;7.164;2023-03-11T13:16:48;95430.41;;;10.32;42.58
38054;BME280;23859;50.672;7.164;2023-03-11T13:21:58;95432.28;;;10.41;41.80
38054;BME280;23859;50.672;7.164;2023-03-11T13:29:54;95425.66;;;10.49;41.10
38054;BME280;23859;50.672;7.164;2023-03-11T13:35:51;95414.88;;;9.79;41.58
38054;BME280;23859;50.672;7.164;2023-03-11T13:38:46;95412.78;;;9.91;41.45
38054;BME280;23859;50.672;7.164;2023-03-11T13:41:30;95401.03;;;9.67;39.55
38054;BME280;23859;50.672;7.164;2023-03-11T13:46:39;95428.88;;;10.51;41.57
38054;BME280;23859;50.672;7.164;2023-03-11T13:49:29;95444.22;;;11.28;42.00
38054;BME280;23859;50.672;7.164;2023-03-11T13:51:57;95457.50;;;11.38;39.52
38054;BME280;23859;50.672;7.164;2023-03-11T13:54:30;95428.22;;;10.04;38.41
38054;BME280;23859;50.672;7.164;2023-03-11T13:57:01;95419.69;;;9.92;40.13
38054;BME280;23859;50.672;7.164;2023-03-11T13:59:32;95397.25;;;9.48;40.61
38054;BME280;23859;50.672;7.164;2023-03-11T14:04:35;95391.09;;;10.04;39.44
38054;BME280;23859;50.672;7.164;2023-03-11T14:10:07;95491.88;;;14.40;33.91
38054;BME280;23859;50.672;7.164;2023-03-11T14:12:33;95551.94;;;16.48;31.00
38054;BME280;23859;50.672;7.164;2023-03-11T14:15:03;95536.06;;;15.80;28.70
38054;BME280;23859;50.672;7.164;2023-03-11T14:17:30;95507.63;;;14.83;31.55
38054;BME280;23859;50.672;7.164;2023-03-11T14:20:21;95479.53;;;13.74;31.43
38054;BME280;23859;50.672;7.164;2023-03-11T14:22:52;95488.16;;;14.18;31.87
38054;BME280;23859;50.672;7.164;2023-03-11T14:25:26;95505.47;;;15.17;29.28
38054;BME280;23859;50.672;7.164;2023-03-11T14:27:55;95540.03;;;16.67;27.44
38054;BME280;23859;50.672;7.164;2023-03-11T14:30:27;95545.88;;;16.56;27.40
38054;BME280;23859;50.672;7.164;2023-03-11T14:33:03;95513.34;;;16.49;30.32
38054;BME280;23859;50.672;7.164;2023-03-11T14:35:31;95556.50;;;17.80;25.95